sensor_id;sensor_type;location;lat;lon;timestamp;P1;durP1;ratioP1;P2;durP2;ratioP2
59974;SDS011;62136;-35.664;-63.766;2022-07-22T00:01:17;1.85;;;0.70;;
59974;SDS011;62136;-35.664;-63.766;2022-07-22T00:03:45;1.33;;;0.82;;
59974;SDS011;62136;-35.664;-63.766;2022-07-22T00:06:12;1.38;;;0.60;;
59974;SDS011;62136;-35.664;-63.766;2022-07-22T00:08:39;1.40;;;0.90;;
59974;SDS011;62136;-35.664;-63.766;2022-07-22T00:11:06;1.30;;;0.90;;
59974;SDS011;62136;-35.664;-63.766;2022-07-22T00:13:34;2.42;;;1.20;;
59974;SDS011;62136;-35.664;-63.766;2022-07-22T00:16:01;1.70;;;0.90;;
59974;SDS011;62136;-35.664;-63.766;2022-07-22T00:18:28;1.10;;;0.90;;
59974;SDS011;62136;-35.664;-63.766;2022-07-22T00:20:55;0.80;;;0.80;;
59974;SDS011;62136;-35.664;-63.766;2022-07-22T00:23:22;1.00;;;0.90;;
59974;SDS011;62136;-35.664;-63.766;2022-07-22T00:25:49;1.73;;;0.98;;
59974;SDS011;62136;-35.664;-63.766;2022-07-22T00:28:16;1.58;;;0.90;;
59974;SDS011;62136;-35.664;-63.766;2022-07-22T00:30:43;1.98;;;0.75;;
59974;SDS011;62136;-35.664;-63.766;2022-07-22T00:33:11;2.38;;;1.20;;
59974;SDS011;62136;-35.664;-63.766;2022-07-22T00:35:38;2.25;;;1.10;;
59974;SDS011;62136;-35.664;-63.766;2022-07-22T00:38:05;2.40;;;0.95;;
59974;SDS011;62136;-35.664;-63.766;2022-07-22T00:40:32;2.58;;;1.27;;
59974;SDS011;62136;-35.664;-63.766;2022-07-22T00:42:59;3.05;;;0.98;;
59974;SDS011;62136;-35.664;-63.766;2022-07-22T00:45:26;1.13;;;0.80;;
59974;SDS011;62136;-35.664;-63.766;2022-07-22T00:47:54;2.40;;;1.15;;
59974;SDS011;62136;-35.664;-63.766;2022-07-22T00:50:21;1.80;;;0.90;;
59974;SDS011;62136;-35.664;-63.766;2022-07-22T00:52:49;1.63;;;1.00;;
59974;SDS011;62136;-35.664;-63.766;2022-07-22T00:55:16;1.33;;;1.00;;
59974;SDS011;62136;-35.664;-63.766;2022-07-22T00:57:43;1.98;;;1.15;;
59974;SDS011;62136;-35.664;-63.766;2022-07-22T01:00:12;1.67;;;0.93;;
59974;SDS011;62136;-35.664;-63.766;2022-07-22T01:02:42;1.38;;;1.05;;
59974;SDS011;62136;-35.664;-63.766;2022-07-22T01:05:09;3.85;;;1.35;;
59974;SDS011;62136;-35.664;-63.766;2022-07-22T01:07:37;2.00;;;1.27;;
59974;SDS011;62136;-35.664;-63.766;2022-07-22T01:10:05;1.80;;;1.10;;
59974;SDS011;62136;-35.664;-63.766;2022-07-22T01:12:33;2.35;;;1.20;;
59974;SDS011;62136;-35.664;-63.766;2022-07-22T01:15:00;1.90;;;1.10;;
59974;SDS011;62136;-35.664;-63.766;2022-07-22T01:17:27;2.97;;;1.30;;
59974;SDS011;62136;-35.664;-63.766;2022-07-22T01:19:59;1.35;;;1.10;;
59974;SDS011;62136;-35.664;-63.766;2022-07-22T01:22:28;6.50;;;1.33;;
59974;SDS011;62136;-35.664;-63.766;2022-07-22T01:24:57;2.20;;;1.27;;
59974;SDS011;62136;-35.664;-63.766;2022-07-22T01:27:24;2.45;;;1.27;;
59974;SDS011;62136;-35.664;-63.766;2022-07-22T01:29:51;1.75;;;1.13;;
59974;SDS011;62136;-35.664;-63.766;2022-07-22T01:32:18;2.60;;;1.40;;
59974;SDS011;62136;-35.664;-63.766;2022-07-22T01:34:45;3.80;;;1.45;;
59974;SDS011;62136;-35.664;-63.766;2022-07-22T01:37:13;3.15;;;1.40;;
59974;SDS011;62136;-35.664;-63.766;2022-07-22T01:39:39;2.72;;;1.38;;
59974;SDS011;62136;-35.664;-63.766;2022-07-22T01:42:07;2.17;;;1.17;;
59974;SDS011;62136;-35.664;-63.766;2022-07-22T01:44:34;3.80;;;1.45;;
59974;SDS011;62136;-35.664;-63.766;2022-07-22T01:47:01;2.80;;;1.10;;
59974;SDS011;62136;-35.664;-63.766;2022-07-22T01:49:28;1.75;;;1.20;;
59974;SDS011;62136;-35.664;-63.766;2022-07-22T01:51:55;2.53;;;1.45;;
59974;SDS011;62136;-35.664;-63.766;2022-07-22T01:54:22;3.92;;;1.70;;
59974;SDS011;62136;-35.664;-63.766;2022-07-22T01:56:49;2.08;;;1.30;;
59974;SDS011;62136;-35.664;-63.766;2022-07-22T01:59:16;2.53;;;1.60;;
59974;SDS011;62136;-35.664;-63.766;2022-07-22T02:01:43;2.25;;;1.58;;
59974;SDS011;62136;-35.664;-63.766;2022-07-22T02:04:10;2.83;;;1.50;;
59974;SDS011;62136;-35.664;-63.766;2022-07-22T02:06:37;2.33;;;1.20;;
59974;SDS011;62136;-35.664;-63.766;2022-07-22T02:09:05;1.83;;;1.30;;
59974;SDS011;62136;-35.664;-63.766;2022-07-22T02:11:32;4.88;;;1.75;;
59974;SDS011;62136;-35.664;-63.766;2022-07-22T02:13:59;2.28;;;1.58;;
59974;SDS011;62136;-35.664;-63.766;2022-07-22T02:16:27;2.72;;;1.40;;
59974;SDS011;62136;-35.664;-63.766;2022-07-22T02:18:56;3.13;;;1.48;;
59974;SDS011;62136;-35.664;-63.766;2022-07-22T02:21:23;2.10;;;1.50;;
59974;SDS011;62136;-35.664;-63.766;2022-07-22T02:23:50;3.85;;;1.60;;
59974;SDS011;62136;-35.664;-63.766;2022-07-22T02:26:17;2.97;;;1.55;;
59974;SDS011;62136;-35.664;-63.766;2022-07-22T02:28:45;3.55;;;1.50;;
59974;SDS011;62136;-35.664;-63.766;2022-07-22T02:31:18;2.70;;;1.42;;
59974;SDS011;62136;-35.664;-63.766;2022-07-22T02:33:46;3.13;;;1.55;;
59974;SDS011;62136;-35.664;-63.766;2022-07-22T02:36:13;2.78;;;1.30;;
59974;SDS011;62136;-35.664;-63.766;2022-07-22T02:38:40;1.73;;;1.20;;
59974;SDS011;62136;-35.664;-63.766;2022-07-22T02:41:07;2.25;;;1.42;;
59974;SDS011;62136;-35.664;-63.766;2022-07-22T02:43:34;2.22;;;1.35;;
59974;SDS011;62136;-35.664;-63.766;2022-07-22T02:46:01;1.60;;;1.50;;
59974;SDS011;62136;-35.664;-63.766;2022-07-22T02:48:29;4.10;;;1.90;;
59974;SDS011;62136;-35.664;-63.766;2022-07-22T02:50:59;2.47;;;1.60;;
59974;SDS011;62136;-35.664;-63.766;2022-07-22T02:53:26;2.58;;;1.52;;
59974;SDS011;62136;-35.664;-63.766;2022-07-22T02:55:53;2.80;;;1.80;;
59974;SDS011;62136;-35.664;-63.766;2022-07-22T02:58:20;2.83;;;1.60;;
59974;SDS011;62136;-35.664;-63.766;2022-07-22T03:00:47;2.97;;;1.75;;
59974;SDS011;62136;-35.664;-63.766;2022-07-22T03:03:14;2.20;;;1.70;;
59974;SDS011;62136;-35.664;-63.766;2022-07-22T03:05:42;2.47;;;1.60;;
59974;SDS011;62136;-35.664;-63.766;2022-07-22T03:08:09;2.42;;;1.63;;
59974;SDS011;62136;-35.664;-63.766;2022-07-22T03:10:37;2.00;;;1.60;;
59974;SDS011;62136;-35.664;-63.766;2022-07-22T03:13:04;3.58;;;1.70;;
59974;SDS011;62136;-35.664;-63.766;2022-07-22T03:15:31;3.63;;;1.40;;
59974;SDS011;62136;-35.664;-63.766;2022-07-22T03:17:58;2.20;;;1.48;;
59974;SDS011;62136;-35.664;-63.766;2022-07-22T03:20:26;1.67;;;1.38;;
59974;SDS011;62136;-35.664;-63.766;2022-07-22T03:22:53;3.88;;;1.63;;
59974;SDS011;62136;-35.664;-63.766;2022-07-22T03:25:20;2.03;;;1.60;;
59974;SDS011;62136;-35.664;-63.766;2022-07-22T03:27:47;2.22;;;1.60;;
59974;SDS011;62136;-35.664;-63.766;2022-07-22T03:30:14;1.92;;;1.10;;
59974;SDS011;62136;-35.664;-63.766;2022-07-22T03:32:42;2.97;;;1.58;;
59974;SDS011;62136;-35.664;-63.766;2022-07-22T03:35:12;3.58;;;1.67;;
59974;SDS011;62136;-35.664;-63.766;2022-07-22T03:37:44;2.35;;;1.30;;
59974;SDS011;62136;-35.664;-63.766;2022-07-22T03:40:14;2.60;;;1.83;;
59974;SDS011;62136;-35.664;-63.766;2022-07-22T03:42:45;1.70;;;1.60;;
59974;SDS011;62136;-35.664;-63.766;2022-07-22T03:45:12;2.20;;;1.63;;
59974;SDS011;62136;-35.664;-63.766;2022-07-22T03:47:39;2.90;;;1.42;;
59974;SDS011;62136;-35.664;-63.766;2022-07-22T03:50:07;2.85;;;1.63;;
59974;SDS011;62136;-35.664;-63.766;2022-07-22T03:52:34;2.15;;;1.45;;
59974;SDS011;62136;-35.664;-63.766;2022-07-22T03:55:02;4.05;;;1.52;;
59974;SDS011;62136;-35.664;-63.766;2022-07-22T03:57:30;1.65;;;1.50;;
59974;SDS011;62136;-35.664;-63.766;2022-07-22T03:59:57;3.03;;;2.00;;
59974;SDS011;62136;-35.664;-63.766;2022-07-22T04:02:27;3.30;;;1.80;;
59974;SDS011;62136;-35.664;-63.766;2022-07-22T04:04:57;2.85;;;1.42;;
59974;SDS011;62136;-35.664;-63.766;2022-07-22T04:07:24;2.47;;;1.40;;
59974;SDS011;62136;-35.664;-63.766;2022-07-22T04:09:52;4.43;;;1.48;;
59974;SDS011;62136;-35.664;-63.766;2022-07-22T04:12:32;3.13;;;1.40;;
59974;SDS011;62136;-35.664;-63.766;2022-07-22T04:15:00;1.80;;;1.58;;
59974;SDS011;62136;-35.664;-63.766;2022-07-22T04:17:27;3.38;;;1.38;;
59974;SDS011;62136;-35.664;-63.766;2022-07-22T04:19:57;1.75;;;1.63;;
59974;SDS011;62136;-35.664;-63.766;2022-07-22T04:22:29;2.15;;;1.30;;
59974;SDS011;62136;-35.664;-63.766;2022-07-22T04:24:56;3.58;;;1.55;;
59974;SDS011;62136;-35.664;-63.766;2022-07-22T04:27:23;3.72;;;1.63;;
59974;SDS011;62136;-35.664;-63.766;2022-07-22T04:29:50;3.88;;;1.60;;
59974;SDS011;62136;-35.664;-63.766;2022-07-22T04:32:17;1.75;;;1.00;;
59974;SDS011;62136;-35.664;-63.766;2022-07-22T04:34:44;1.60;;;1.38;;
59974;SDS011;62136;-35.664;-63.766;2022-07-22T04:37:11;2.70;;;1.40;;
59974;SDS011;62136;-35.664;-63.766;2022-07-22T04:39:59;2.30;;;1.30;;
59974;SDS011;62136;-35.664;-63.766;2022-07-22T04:45:38;2.03;;;1.48;;
59974;SDS011;62136;-35.664;-63.766;2022-07-22T04:48:05;3.67;;;1.58;;
59974;SDS011;62136;-35.664;-63.766;2022-07-22T04:50:32;2.28;;;1.33;;
59974;SDS011;62136;-35.664;-63.766;2022-07-22T04:53:03;2.60;;;1.60;;
59974;SDS011;62136;-35.664;-63.766;2022-07-22T04:55:30;2.45;;;1.45;;
59974;SDS011;62136;-35.664;-63.766;2022-07-22T04:57:57;1.20;;;0.88;;
59974;SDS011;62136;-35.664;-63.766;2022-07-22T05:00:24;2.20;;;1.35;;
59974;SDS011;62136;-35.664;-63.766;2022-07-22T05:02:51;2.90;;;1.10;;
59974;SDS011;62136;-35.664;-63.766;2022-07-22T05:05:19;3.47;;;1.30;;
59974;SDS011;62136;-35.664;-63.766;2022-07-22T05:07:46;2.67;;;1.25;;
59974;SDS011;62136;-35.664;-63.766;2022-07-22T05:10:13;3.60;;;1.45;;
59974;SDS011;62136;-35.664;-63.766;2022-07-22T05:12:40;2.03;;;1.20;;
59974;SDS011;62136;-35.664;-63.766;2022-07-22T05:15:09;1.45;;;1.20;;
59974;SDS011;62136;-35.664;-63.766;2022-07-22T05:17:36;1.40;;;1.30;;
59974;SDS011;62136;-35.664;-63.766;2022-07-22T05:20:03;2.00;;;1.23;;
59974;SDS011;62136;-35.664;-63.766;2022-07-22T05:22:31;2.17;;;1.30;;
59974;SDS011;62136;-35.664;-63.766;2022-07-22T05:24:58;2.65;;;1.33;;
59974;SDS011;62136;-35.664;-63.766;2022-07-22T05:27:25;2.95;;;1.23;;
59974;SDS011;62136;-35.664;-63.766;2022-07-22T05:29:52;2.05;;;1.73;;
59974;SDS011;62136;-35.664;-63.766;2022-07-22T05:32:19;2.78;;;1.05;;
59974;SDS011;62136;-35.664;-63.766;2022-07-22T05:34:46;1.60;;;1.20;;
59974;SDS011;62136;-35.664;-63.766;2022-07-22T05:37:13;1.70;;;1.20;;
59974;SDS011;62136;-35.664;-63.766;2022-07-22T05:39:42;2.55;;;1.45;;
59974;SDS011;62136;-35.664;-63.766;2022-07-22T05:42:09;1.92;;;1.15;;
59974;SDS011;62136;-35.664;-63.766;2022-07-22T05:44:36;2.75;;;1.10;;
59974;SDS011;62136;-35.664;-63.766;2022-07-22T05:47:03;2.80;;;1.17;;
59974;SDS011;62136;-35.664;-63.766;2022-07-22T05:49:31;2.10;;;1.20;;
59974;SDS011;62136;-35.664;-63.766;2022-07-22T05:51:58;2.45;;;1.30;;
59974;SDS011;62136;-35.664;-63.766;2022-07-22T05:54:27;1.67;;;1.33;;
59974;SDS011;62136;-35.664;-63.766;2022-07-22T05:56:54;2.60;;;0.98;;
59974;SDS011;62136;-35.664;-63.766;2022-07-22T05:59:21;2.83;;;1.20;;
59974;SDS011;62136;-35.664;-63.766;2022-07-22T06:01:48;1.63;;;1.00;;
59974;SDS011;62136;-35.664;-63.766;2022-07-22T06:04:15;2.17;;;1.05;;
59974;SDS011;62136;-35.664;-63.766;2022-07-22T06:06:42;2.80;;;1.30;;
59974;SDS011;62136;-35.664;-63.766;2022-07-22T06:09:10;1.98;;;1.27;;
59974;SDS011;62136;-35.664;-63.766;2022-07-22T06:11:37;2.03;;;1.00;;
59974;SDS011;62136;-35.664;-63.766;2022-07-22T06:14:04;1.38;;;0.90;;
59974;SDS011;62136;-35.664;-63.766;2022-07-22T06:16:31;3.42;;;1.20;;
59974;SDS011;62136;-35.664;-63.766;2022-07-22T06:18:59;1.67;;;1.13;;
59974;SDS011;62136;-35.664;-63.766;2022-07-22T06:21:27;2.05;;;1.10;;
59974;SDS011;62136;-35.664;-63.766;2022-07-22T06:23:54;3.05;;;1.63;;
59974;SDS011;62136;-35.664;-63.766;2022-07-22T06:26:21;2.55;;;1.17;;
59974;SDS011;62136;-35.664;-63.766;2022-07-22T06:28:48;2.58;;;1.15;;
59974;SDS011;62136;-35.664;-63.766;2022-07-22T06:31:15;1.70;;;1.20;;
59974;SDS011;62136;-35.664;-63.766;2022-07-22T06:33:42;1.73;;;1.35;;
59974;SDS011;62136;-35.664;-63.766;2022-07-22T06:36:09;1.90;;;1.23;;
59974;SDS011;62136;-35.664;-63.766;2022-07-22T06:38:36;3.92;;;1.50;;
59974;SDS011;62136;-35.664;-63.766;2022-07-22T06:41:03;3.25;;;1.10;;
59974;SDS011;62136;-35.664;-63.766;2022-07-22T06:43:30;2.72;;;1.10;;
59974;SDS011;62136;-35.664;-63.766;2022-07-22T06:45:57;2.88;;;1.40;;
59974;SDS011;62136;-35.664;-63.766;2022-07-22T06:48:25;3.45;;;1.20;;
59974;SDS011;62136;-35.664;-63.766;2022-07-22T06:50:52;2.15;;;1.10;;
59974;SDS011;62136;-35.664;-63.766;2022-07-22T06:53:19;3.50;;;1.13;;
59974;SDS011;62136;-35.664;-63.766;2022-07-22T06:55:47;1.80;;;0.95;;
59974;SDS011;62136;-35.664;-63.766;2022-07-22T06:58:14;3.45;;;1.27;;
59974;SDS011;62136;-35.664;-63.766;2022-07-22T07:00:41;1.75;;;1.17;;
59974;SDS011;62136;-35.664;-63.766;2022-07-22T07:03:08;1.60;;;1.30;;
59974;SDS011;62136;-35.664;-63.766;2022-07-22T07:05:35;2.30;;;1.10;;
59974;SDS011;62136;-35.664;-63.766;2022-07-22T07:08:02;1.02;;;0.93;;
59974;SDS011;62136;-35.664;-63.766;2022-07-22T07:10:29;1.92;;;1.10;;
59974;SDS011;62136;-35.664;-63.766;2022-07-22T07:12:57;2.30;;;0.95;;
59974;SDS011;62136;-35.664;-63.766;2022-07-22T07:15:24;1.38;;;0.90;;
59974;SDS011;62136;-35.664;-63.766;2022-07-22T07:17:53;1.67;;;1.00;;
59974;SDS011;62136;-35.664;-63.766;2022-07-22T07:20:22;2.65;;;1.38;;
59974;SDS011;62136;-35.664;-63.766;2022-07-22T07:22:49;1.50;;;1.25;;
59974;SDS011;62136;-35.664;-63.766;2022-07-22T07:25:16;2.13;;;1.00;;
59974;SDS011;62136;-35.664;-63.766;2022-07-22T07:27:44;1.17;;;1.02;;
59974;SDS011;62136;-35.664;-63.766;2022-07-22T07:30:11;3.15;;;1.23;;
59974;SDS011;62136;-35.664;-63.766;2022-07-22T07:32:38;2.30;;;1.27;;
59974;SDS011;62136;-35.664;-63.766;2022-07-22T07:35:06;1.90;;;0.98;;
59974;SDS011;62136;-35.664;-63.766;2022-07-22T07:37:33;2.28;;;1.00;;
59974;SDS011;62136;-35.664;-63.766;2022-07-22T07:40:00;2.35;;;1.10;;
59974;SDS011;62136;-35.664;-63.766;2022-07-22T07:42:28;2.53;;;1.38;;
59974;SDS011;62136;-35.664;-63.766;2022-07-22T07:44:55;1.63;;;0.90;;
59974;SDS011;62136;-35.664;-63.766;2022-07-22T07:47:22;2.42;;;0.75;;
59974;SDS011;62136;-35.664;-63.766;2022-07-22T07:49:49;2.88;;;0.80;;
59974;SDS011;62136;-35.664;-63.766;2022-07-22T07:52:17;2.35;;;1.20;;
59974;SDS011;62136;-35.664;-63.766;2022-07-22T07:54:44;2.13;;;0.90;;
59974;SDS011;62136;-35.664;-63.766;2022-07-22T07:57:13;2.03;;;1.15;;
59974;SDS011;62136;-35.664;-63.766;2022-07-22T07:59:40;3.92;;;1.10;;
59974;SDS011;62136;-35.664;-63.766;2022-07-22T08:02:07;1.77;;;1.10;;
59974;SDS011;62136;-35.664;-63.766;2022-07-22T08:04:35;2.65;;;0.80;;
59974;SDS011;62136;-35.664;-63.766;2022-07-22T08:07:03;2.72;;;1.05;;
59974;SDS011;62136;-35.664;-63.766;2022-07-22T08:09:31;1.50;;;1.00;;
59974;SDS011;62136;-35.664;-63.766;2022-07-22T08:12:00;2.05;;;1.00;;
59974;SDS011;62136;-35.664;-63.766;2022-07-22T08:14:28;1.85;;;1.10;;
59974;SDS011;62136;-35.664;-63.766;2022-07-22T08:16:55;1.88;;;0.85;;
59974;SDS011;62136;-35.664;-63.766;2022-07-22T08:19:22;2.20;;;0.80;;
59974;SDS011;62136;-35.664;-63.766;2022-07-22T08:21:49;3.10;;;0.82;;
59974;SDS011;62136;-35.664;-63.766;2022-07-22T08:24:16;2.88;;;0.90;;
59974;SDS011;62136;-35.664;-63.766;2022-07-22T08:26:43;1.42;;;1.08;;
59974;SDS011;62136;-35.664;-63.766;2022-07-22T08:29:13;2.15;;;1.20;;
59974;SDS011;62136;-35.664;-63.766;2022-07-22T08:31:40;2.83;;;1.20;;
59974;SDS011;62136;-35.664;-63.766;2022-07-22T08:34:07;3.33;;;1.00;;
59974;SDS011;62136;-35.664;-63.766;2022-07-22T08:36:34;2.75;;;0.90;;
59974;SDS011;62136;-35.664;-63.766;2022-07-22T08:39:01;1.75;;;0.90;;
59974;SDS011;62136;-35.664;-63.766;2022-07-22T08:41:29;0.85;;;0.82;;
59974;SDS011;62136;-35.664;-63.766;2022-07-22T08:44:02;1.85;;;0.90;;
59974;SDS011;62136;-35.664;-63.766;2022-07-22T08:46:31;2.08;;;1.00;;
59974;SDS011;62136;-35.664;-63.766;2022-07-22T08:48:58;1.30;;;0.80;;
59974;SDS011;62136;-35.664;-63.766;2022-07-22T08:51:27;3.30;;;1.00;;
59974;SDS011;62136;-35.664;-63.766;2022-07-22T08:53:55;1.40;;;0.90;;
59974;SDS011;62136;-35.664;-63.766;2022-07-22T08:56:22;1.42;;;0.70;;
59974;SDS011;62136;-35.664;-63.766;2022-07-22T08:58:49;2.58;;;1.13;;
59974;SDS011;62136;-35.664;-63.766;2022-07-22T09:01:16;3.08;;;1.00;;
59974;SDS011;62136;-35.664;-63.766;2022-07-22T09:03:45;1.10;;;0.80;;
59974;SDS011;62136;-35.664;-63.766;2022-07-22T09:06:22;1.98;;;0.90;;
59974;SDS011;62136;-35.664;-63.766;2022-07-22T09:08:54;3.88;;;1.05;;
59974;SDS011;62136;-35.664;-63.766;2022-07-22T09:11:27;1.63;;;1.25;;
59974;SDS011;62136;-35.664;-63.766;2022-07-22T09:13:55;2.50;;;1.00;;
59974;SDS011;62136;-35.664;-63.766;2022-07-22T09:16:39;1.02;;;0.93;;
59974;SDS011;62136;-35.664;-63.766;2022-07-22T09:19:11;3.92;;;1.00;;
59974;SDS011;62136;-35.664;-63.766;2022-07-22T09:21:40;1.52;;;1.13;;
59974;SDS011;62136;-35.664;-63.766;2022-07-22T09:24:25;1.23;;;1.10;;
59974;SDS011;62136;-35.664;-63.766;2022-07-22T09:26:56;1.60;;;0.85;;
59974;SDS011;62136;-35.664;-63.766;2022-07-22T09:29:23;2.50;;;0.93;;
59974;SDS011;62136;-35.664;-63.766;2022-07-22T09:31:51;1.85;;;1.10;;
59974;SDS011;62136;-35.664;-63.766;2022-07-22T09:34:28;2.08;;;0.98;;
59974;SDS011;62136;-35.664;-63.766;2022-07-22T09:36:58;2.45;;;1.02;;
59974;SDS011;62136;-35.664;-63.766;2022-07-22T09:39:30;1.10;;;1.00;;
59974;SDS011;62136;-35.664;-63.766;2022-07-22T09:41:59;1.58;;;1.02;;
59974;SDS011;62136;-35.664;-63.766;2022-07-22T09:44:27;2.92;;;1.30;;
59974;SDS011;62136;-35.664;-63.766;2022-07-22T09:46:54;2.67;;;1.10;;
59974;SDS011;62136;-35.664;-63.766;2022-07-22T09:49:31;2.00;;;0.90;;
59974;SDS011;62136;-35.664;-63.766;2022-07-22T09:52:04;1.67;;;1.00;;
59974;SDS011;62136;-35.664;-63.766;2022-07-22T09:54:32;2.38;;;1.05;;
59974;SDS011;62136;-35.664;-63.766;2022-07-22T09:57:00;2.17;;;1.10;;
59974;SDS011;62136;-35.664;-63.766;2022-07-22T09:59:27;1.63;;;1.13;;
59974;SDS011;62136;-35.664;-63.766;2022-07-22T10:01:55;2.15;;;1.20;;
59974;SDS011;62136;-35.664;-63.766;2022-07-22T10:04:24;1.88;;;0.70;;
59974;SDS011;62136;-35.664;-63.766;2022-07-22T10:06:56;6.22;;;1.17;;
59974;SDS011;62136;-35.664;-63.766;2022-07-22T10:09:24;2.58;;;1.02;;
59974;SDS011;62136;-35.664;-63.766;2022-07-22T10:11:54;1.60;;;0.85;;
59974;SDS011;62136;-35.664;-63.766;2022-07-22T10:14:22;2.00;;;1.52;;
59974;SDS011;62136;-35.664;-63.766;2022-07-22T10:16:50;1.10;;;0.85;;
59974;SDS011;62136;-35.664;-63.766;2022-07-22T10:19:17;1.00;;;0.80;;
59974;SDS011;62136;-35.664;-63.766;2022-07-22T10:21:44;1.65;;;0.90;;
59974;SDS011;62136;-35.664;-63.766;2022-07-22T10:24:12;1.70;;;0.88;;
59974;SDS011;62136;-35.664;-63.766;2022-07-22T10:26:53;1.42;;;1.00;;
59974;SDS011;62136;-35.664;-63.766;2022-07-22T10:32:21;3.40;;;1.35;;
59974;SDS011;62136;-35.664;-63.766;2022-07-22T10:45:33;1.50;;;1.02;;
59974;SDS011;62136;-35.664;-63.766;2022-07-22T10:48:10;3.28;;;1.02;;
59974;SDS011;62136;-35.664;-63.766;2022-07-22T10:50:40;2.42;;;0.90;;
59974;SDS011;62136;-35.664;-63.766;2022-07-22T10:53:52;2.85;;;1.10;;
59974;SDS011;62136;-35.664;-63.766;2022-07-22T10:56:13;2.05;;;0.75;;
59974;SDS011;62136;-35.664;-63.766;2022-07-22T10:58:45;1.85;;;0.85;;
59974;SDS011;62136;-35.664;-63.766;2022-07-22T11:01:13;1.48;;;0.75;;
59974;SDS011;62136;-35.664;-63.766;2022-07-22T11:03:42;2.45;;;1.00;;
59974;SDS011;62136;-35.664;-63.766;2022-07-22T11:06:24;1.98;;;1.20;;
59974;SDS011;62136;-35.664;-63.766;2022-07-22T11:11:36;1.25;;;1.00;;
59974;SDS011;62136;-35.664;-63.766;2022-07-22T11:14:14;1.52;;;0.90;;
59974;SDS011;62136;-35.664;-63.766;2022-07-22T11:16:57;3.03;;;1.00;;
59974;SDS011;62136;-35.664;-63.766;2022-07-22T11:19:29;1.45;;;0.93;;
59974;SDS011;62136;-35.664;-63.766;2022-07-22T11:22:04;1.88;;;1.10;;
59974;SDS011;62136;-35.664;-63.766;2022-07-22T11:24:33;2.45;;;1.00;;
59974;SDS011;62136;-35.664;-63.766;2022-07-22T11:27:02;1.92;;;1.00;;
59974;SDS011;62136;-35.664;-63.766;2022-07-22T11:32:01;2.03;;;1.10;;
59974;SDS011;62136;-35.664;-63.766;2022-07-22T11:34:29;0.85;;;0.85;;
59974;SDS011;62136;-35.664;-63.766;2022-07-22T11:36:57;1.80;;;1.00;;
59974;SDS011;62136;-35.664;-63.766;2022-07-22T11:39:25;1.35;;;0.90;;
59974;SDS011;62136;-35.664;-63.766;2022-07-22T11:41:54;1.75;;;1.20;;
59974;SDS011;62136;-35.664;-63.766;2022-07-22T11:44:25;2.72;;;1.10;;
59974;SDS011;62136;-35.664;-63.766;2022-07-22T11:46:53;0.82;;;0.80;;
59974;SDS011;62136;-35.664;-63.766;2022-07-22T11:49:24;3.22;;;1.13;;
59974;SDS011;62136;-35.664;-63.766;2022-07-22T11:51:53;2.25;;;1.00;;
59974;SDS011;62136;-35.664;-63.766;2022-07-22T11:54:20;1.88;;;1.10;;
59974;SDS011;62136;-35.664;-63.766;2022-07-22T11:56:47;3.72;;;1.30;;
59974;SDS011;62136;-35.664;-63.766;2022-07-22T11:59:15;2.08;;;1.00;;
59974;SDS011;62136;-35.664;-63.766;2022-07-22T12:01:47;2.20;;;1.10;;
59974;SDS011;62136;-35.664;-63.766;2022-07-22T12:04:17;1.88;;;0.90;;
59974;SDS011;62136;-35.664;-63.766;2022-07-22T12:06:47;2.05;;;1.15;;
59974;SDS011;62136;-35.664;-63.766;2022-07-22T12:09:15;2.17;;;0.95;;
59974;SDS011;62136;-35.664;-63.766;2022-07-22T12:11:49;2.50;;;1.20;;
59974;SDS011;62136;-35.664;-63.766;2022-07-22T12:14:18;1.80;;;1.13;;
59974;SDS011;62136;-35.664;-63.766;2022-07-22T12:16:57;1.58;;;1.10;;
59974;SDS011;62136;-35.664;-63.766;2022-07-22T12:19:33;2.67;;;1.40;;
59974;SDS011;62136;-35.664;-63.766;2022-07-22T12:22:02;2.08;;;1.27;;
59974;SDS011;62136;-35.664;-63.766;2022-07-22T12:24:41;2.65;;;1.30;;
59974;SDS011;62136;-35.664;-63.766;2022-07-22T12:27:10;2.53;;;1.17;;
59974;SDS011;62136;-35.664;-63.766;2022-07-22T12:29:45;1.67;;;1.15;;
59974;SDS011;62136;-35.664;-63.766;2022-07-22T12:37:25;2.38;;;1.30;;
59974;SDS011;62136;-35.664;-63.766;2022-07-22T12:42:26;2.00;;;1.42;;
59974;SDS011;62136;-35.664;-63.766;2022-07-22T12:45:05;4.15;;;1.27;;
59974;SDS011;62136;-35.664;-63.766;2022-07-22T12:47:53;1.83;;;1.40;;
59974;SDS011;62136;-35.664;-63.766;2022-07-22T12:50:43;3.53;;;2.00;;
59974;SDS011;62136;-35.664;-63.766;2022-07-22T12:53:31;1.88;;;1.60;;
59974;SDS011;62136;-35.664;-63.766;2022-07-22T12:55:58;3.03;;;1.35;;
59974;SDS011;62136;-35.664;-63.766;2022-07-22T12:58:29;4.00;;;1.92;;
59974;SDS011;62136;-35.664;-63.766;2022-07-22T13:01:01;2.10;;;1.40;;
59974;SDS011;62136;-35.664;-63.766;2022-07-22T13:03:29;1.85;;;1.30;;
59974;SDS011;62136;-35.664;-63.766;2022-07-22T13:05:58;1.63;;;1.38;;
59974;SDS011;62136;-35.664;-63.766;2022-07-22T13:08:29;3.55;;;1.60;;
59974;SDS011;62136;-35.664;-63.766;2022-07-22T13:10:57;4.75;;;1.50;;
59974;SDS011;62136;-35.664;-63.766;2022-07-22T13:13:24;3.10;;;1.27;;
59974;SDS011;62136;-35.664;-63.766;2022-07-22T13:15:51;1.73;;;1.27;;
59974;SDS011;62136;-35.664;-63.766;2022-07-22T13:18:18;4.30;;;1.58;;
59974;SDS011;62136;-35.664;-63.766;2022-07-22T13:20:45;2.28;;;1.55;;
59974;SDS011;62136;-35.664;-63.766;2022-07-22T13:23:12;2.30;;;1.30;;
59974;SDS011;62136;-35.664;-63.766;2022-07-22T13:25:40;4.15;;;1.17;;
59974;SDS011;62136;-35.664;-63.766;2022-07-22T13:28:07;2.60;;;1.42;;
59974;SDS011;62136;-35.664;-63.766;2022-07-22T13:30:34;4.10;;;1.63;;
59974;SDS011;62136;-35.664;-63.766;2022-07-22T13:33:01;3.40;;;1.55;;
59974;SDS011;62136;-35.664;-63.766;2022-07-22T13:35:29;2.72;;;1.67;;
59974;SDS011;62136;-35.664;-63.766;2022-07-22T13:37:56;1.83;;;1.55;;
59974;SDS011;62136;-35.664;-63.766;2022-07-22T13:40:23;2.67;;;1.80;;
59974;SDS011;62136;-35.664;-63.766;2022-07-22T13:42:51;3.22;;;1.25;;
59974;SDS011;62136;-35.664;-63.766;2022-07-22T13:45:18;2.10;;;1.50;;
59974;SDS011;62136;-35.664;-63.766;2022-07-22T13:47:45;2.75;;;1.50;;
59974;SDS011;62136;-35.664;-63.766;2022-07-22T13:50:12;4.00;;;1.63;;
59974;SDS011;62136;-35.664;-63.766;2022-07-22T13:52:39;4.80;;;2.20;;
59974;SDS011;62136;-35.664;-63.766;2022-07-22T13:55:07;4.22;;;1.52;;
59974;SDS011;62136;-35.664;-63.766;2022-07-22T13:57:34;2.33;;;1.35;;
59974;SDS011;62136;-35.664;-63.766;2022-07-22T14:00:03;3.20;;;1.60;;
59974;SDS011;62136;-35.664;-63.766;2022-07-22T14:02:32;1.80;;;1.45;;
59974;SDS011;62136;-35.664;-63.766;2022-07-22T14:04:59;2.00;;;1.40;;
59974;SDS011;62136;-35.664;-63.766;2022-07-22T14:07:26;2.65;;;1.40;;
59974;SDS011;62136;-35.664;-63.766;2022-07-22T14:09:53;3.13;;;1.75;;
59974;SDS011;62136;-35.664;-63.766;2022-07-22T14:12:24;4.10;;;1.73;;
59974;SDS011;62136;-35.664;-63.766;2022-07-22T14:14:51;4.13;;;1.50;;
59974;SDS011;62136;-35.664;-63.766;2022-07-22T14:17:18;3.17;;;1.27;;
59974;SDS011;62136;-35.664;-63.766;2022-07-22T14:19:45;2.17;;;1.23;;
59974;SDS011;62136;-35.664;-63.766;2022-07-22T14:22:12;3.75;;;1.75;;
59974;SDS011;62136;-35.664;-63.766;2022-07-22T14:24:39;3.00;;;1.27;;
59974;SDS011;62136;-35.664;-63.766;2022-07-22T14:27:06;4.15;;;1.55;;
59974;SDS011;62136;-35.664;-63.766;2022-07-22T14:29:33;1.95;;;1.48;;
59974;SDS011;62136;-35.664;-63.766;2022-07-22T14:32:00;3.20;;;1.70;;
59974;SDS011;62136;-35.664;-63.766;2022-07-22T14:34:27;1.88;;;1.20;;
59974;SDS011;62136;-35.664;-63.766;2022-07-22T14:36:54;3.30;;;1.73;;
59974;SDS011;62136;-35.664;-63.766;2022-07-22T14:39:21;2.95;;;1.73;;
59974;SDS011;62136;-35.664;-63.766;2022-07-22T14:41:48;2.55;;;1.52;;
59974;SDS011;62136;-35.664;-63.766;2022-07-22T14:44:15;3.85;;;1.77;;
59974;SDS011;62136;-35.664;-63.766;2022-07-22T14:46:42;3.03;;;1.80;;